Time;durP1;ratioP1;P1;durP2;ratioP2;P2;SDS_P1;SDS_P2;PMS_P1;PMS_P2;Temp;Humidity;BMP_temperature;BMP_pressure;BME280_temperature;BME280_humidity;BME280_pressure;Samples;Min_cycle;Max_cycle;Signal;HPM_P1;HPM_P2
2023/03/29 00:02:00;;;;;;;1.80;1.20;;;7.90;1.00;;;;;;5074550;28;20382;-76
2023/03/29 00:04:28;;;;;;;4.90;2.90;;;8.00;1.00;;;;;;5074984;28;20857;-76
2023/03/29 00:06:54;;;;;;;4.97;2.60;;;8.00;1.00;;;;;;5074972;28;20416;-76
2023/03/29 00:09:20;;;;;;;1.70;1.27;;;8.00;1.00;;;;;;5075228;28;20857;-76
2023/03/29 00:11:46;;;;;;;2.83;1.63;;;8.10;1.00;;;;;;5074902;28;20398;-76
2023/03/29 00:14:11;;;;;;;3.33;1.40;;;8.00;1.00;;;;;;5075226;28;20488;-80
2023/03/29 00:16:37;;;;;;;1.27;1.10;;;8.00;1.00;;;;;;5074354;28;20593;-80
2023/03/29 00:19:03;;;;;;;1.53;1.23;;;8.30;1.00;;;;;;5074825;28;20393;-80
2023/03/29 00:21:29;;;;;;;1.23;1.13;;;8.00;1.00;;;;;;5056826;28;20171;-80
2023/03/29 00:23:55;;;;;;;2.80;1.30;;;8.10;1.00;;;;;;5074898;28;20421;-80
2023/03/29 00:26:21;;;;;;;2.13;1.10;;;8.00;1.00;;;;;;5075025;28;20542;-80
2023/03/29 00:28:47;;;;;;;1.30;1.10;;;8.30;1.00;;;;;;5074832;28;20401;-75
2023/03/29 00:31:16;;;;;;;1.03;1.03;;;8.00;1.00;;;;;;5074790;28;20175;-76
2023/03/29 00:33:42;;;;;;;3.30;0.90;;;8.00;1.00;;;;;;5074762;28;20163;-76
2023/03/29 00:36:09;;;;;;;1.40;0.93;;;8.10;1.00;;;;;;5074575;28;20427;-76
2023/03/29 00:38:36;;;;;;;1.33;1.23;;;8.00;1.00;;;;;;5074346;28;20490;-76
2023/03/29 00:41:02;;;;;;;1.47;1.10;;;8.00;1.00;;;;;;5056175;28;20508;-76
2023/03/29 00:43:29;;;;;;;1.10;1.00;;;8.10;1.00;;;;;;5074493;28;20466;-77
2023/03/29 00:45:55;;;;;;;1.10;1.00;;;8.10;1.00;;;;;;5074351;28;20382;-80
2023/03/29 00:48:27;;;;;;;1.17;1.10;;;8.00;1.00;;;;;;5074158;28;20480;-80
2023/03/29 00:50:58;;;;;;;1.30;1.20;;;8.00;1.00;;;;;;5056342;28;20437;-80
2023/03/29 00:53:37;;;;;;;2.70;1.30;;;8.00;1.00;;;;;;5056249;28;20420;-80
2023/03/29 00:56:12;;;;;;;2.60;1.80;;;8.00;1.00;;;;;;5074271;28;20409;-80
2023/03/29 00:58:52;;;;;;;1.53;1.07;;;8.00;1.00;;;;;;5074204;28;20440;-77
2023/03/29 01:01:32;;;;;;;3.73;1.40;;;8.00;1.00;;;;;;5074304;28;20416;-80
2023/03/29 01:04:19;;;;;;;5.23;1.70;;;8.00;1.00;;;;;;5074040;28;20386;-80
2023/03/29 01:07:12;;;;;;;2.80;1.67;;;7.90;1.00;;;;;;5056069;28;20781;-80
2023/03/29 01:09:41;;;;;;;1.90;1.20;;;7.90;1.00;;;;;;5015567;28;20415;-80
2023/03/29 01:12:15;;;;;;;2.10;1.20;;;7.90;1.00;;;;;;5032152;28;20510;-80
2023/03/29 01:14:51;;;;;;;1.47;1.37;;;7.90;1.00;;;;;;5031750;28;20415;-80
2023/03/29 01:17:20;;;;;;;9.63;1.30;;;7.90;1.00;;;;;;5031623;28;20505;-80
2023/03/29 01:19:56;;;;;;;1.20;1.00;;;7.80;1.00;;;;;;5032150;28;20917;-80
2023/03/29 01:22:39;;;;;;;2.50;1.10;;;7.80;1.00;;;;;;5031779;28;20399;-80
2023/03/29 01:25:16;;;;;;;1.40;1.30;;;7.80;1.00;;;;;;5031970;28;20399;-80
2023/03/29 01:27:50;;;;;;;5.80;1.17;;;7.70;1.00;;;;;;5031690;28;20411;-80
2023/03/29 01:30:51;;;;;;;2.13;1.03;;;7.60;1.00;;;;;;5032347;28;20901;-80
2023/03/29 01:33:22;;;;;;;3.43;1.13;;;7.60;1.00;;;;;;4972792;28;20796;-80
2023/03/29 01:36:00;;;;;;;4.70;1.60;;;7.60;1.00;;;;;;4972844;28;20521;-80
2023/03/29 01:38:47;;;;;;;4.10;1.40;;;7.60;1.00;;;;;;4973342;28;20453;-80
2023/03/29 01:41:13;;;;;;;2.07;1.10;;;7.60;1.00;;;;;;4973272;28;20770;-80
2023/03/29 01:44:23;;;;;;;3.23;1.50;;;7.60;1.00;;;;;;4973128;28;20430;-80
2023/03/29 01:47:03;;;;;;;3.60;1.50;;;7.50;1.00;;;;;;4993565;28;20424;-76
2023/03/29 01:49:36;;;;;;;4.10;1.10;;;7.50;1.00;;;;;;5011675;28;20412;-76
2023/03/29 01:52:16;;;;;;;4.63;1.20;;;7.50;1.00;;;;;;5012023;28;20400;-76
2023/03/29 01:55:07;;;;;;;4.20;1.20;;;7.60;1.00;;;;;;5011713;28;20446;-76
2023/03/29 01:57:33;;;;;;;1.40;1.20;;;7.50;1.00;;;;;;5011457;28;20509;-75
2023/03/29 02:00:00;;;;;;;4.00;1.83;;;7.50;1.00;;;;;;5012072;28;20399;-79
2023/03/29 02:02:29;;;;;;;1.23;1.20;;;7.50;1.00;;;;;;5011962;28;20439;-80
2023/03/29 02:04:56;;;;;;;1.67;1.40;;;7.50;1.00;;;;;;5012042;28;20967;-80
2023/03/29 02:07:25;;;;;;;6.43;1.73;;;7.50;1.00;;;;;;5011582;28;20934;-80
2023/03/29 02:09:53;;;;;;;2.10;1.17;;;7.50;1.00;;;;;;5047697;28;20811;-80
2023/03/29 02:12:19;;;;;;;1.40;1.30;;;7.50;1.00;;;;;;5073520;28;20481;-80
2023/03/29 02:14:45;;;;;;;1.97;1.47;;;7.50;1.00;;;;;;5073784;28;20903;-80
2023/03/29 02:17:22;;;;;;;3.63;1.70;;;7.50;1.00;;;;;;5073105;28;20441;-80
2023/03/29 02:19:56;;;;;;;3.13;1.50;;;7.50;1.00;;;;;;5073419;28;20237;-80
2023/03/29 02:22:30;;;;;;;1.77;1.37;;;7.50;1.00;;;;;;5073624;28;20381;-80
2023/03/29 02:24:57;;;;;;;2.40;1.60;;;7.50;1.00;;;;;;5073105;28;20424;-79
2023/03/29 02:27:27;;;;;;;1.93;1.57;;;7.50;1.00;;;;;;5076496;28;20459;-79
2023/03/29 02:29:53;;;;;;;2.33;1.50;;;7.50;1.00;;;;;;5077590;28;20425;-75
2023/03/29 02:32:47;;;;;;;1.30;1.20;;;7.50;1.00;;;;;;5077240;28;20444;-76
2023/03/29 02:35:19;;;;;;;1.23;0.90;;;7.50;1.00;;;;;;5077008;28;20208;-75
2023/03/29 02:37:48;;;;;;;5.00;1.33;;;7.50;1.00;;;;;;5076614;28;20519;-75
2023/03/29 02:40:15;;;;;;;3.20;1.80;;;7.50;1.00;;;;;;5076606;28;20377;-76
2023/03/29 02:42:44;;;;;;;1.30;1.20;;;7.60;1.00;;;;;;5076561;28;20519;-76
2023/03/29 02:45:13;;;;;;;7.50;1.30;;;7.60;1.00;;;;;;5058940;28;20769;-75
2023/03/29 02:47:47;;;;;;;2.63;1.60;;;7.50;1.00;;;;;;5076429;28;20408;-75
2023/03/29 02:50:13;;;;;;;5.60;1.40;;;7.50;1.00;;;;;;5076719;28;20393;-75
2023/03/29 02:52:45;;;;;;;2.03;1.43;;;7.40;1.00;;;;;;5076666;28;20787;-76
2023/03/29 02:55:15;;;;;;;5.03;1.70;;;7.60;1.00;;;;;;5076403;28;20484;-76
2023/03/29 02:57:42;;;;;;;2.27;1.60;;;7.40;1.00;;;;;;5076258;28;20868;-75
2023/03/29 03:00:09;;;;;;;2.97;1.70;;;7.40;1.00;;;;;;5076859;28;20381;-76
2023/03/29 03:02:36;;;;;;;3.33;1.67;;;7.40;1.00;;;;;;5076210;28;20401;-76
2023/03/29 03:05:04;;;;;;;2.73;2.10;;;7.40;1.00;;;;;;5076217;28;20481;-76
2023/03/29 03:07:30;;;;;;;3.57;1.73;;;7.50;1.00;;;;;;5058164;28;20417;-75
2023/03/29 03:09:56;;;;;;;5.30;1.53;;;7.70;1.00;;;;;;5058181;28;20412;-75
2023/03/29 03:12:22;;;;;;;1.90;1.80;;;7.40;1.00;;;;;;5076335;28;20152;-75
2023/03/29 03:14:51;;;;;;;3.13;1.50;;;7.50;1.00;;;;;;5076472;28;20475;-77
2023/03/29 03:17:17;;;;;;;1.50;1.40;;;7.50;1.00;;;;;;5075938;28;20270;-75
2023/03/29 03:19:43;;;;;;;2.17;1.50;;;7.50;1.00;;;;;;5076189;28;20386;-75
2023/03/29 03:22:08;;;;;;;4.77;1.53;;;7.50;1.00;;;;;;5075823;28;20439;-75
2023/03/29 03:24:37;;;;;;;4.93;1.67;;;7.50;1.00;;;;;;5075794;28;20166;-75
2023/03/29 03:27:03;;;;;;;3.27;1.70;;;7.50;1.00;;;;;;5075784;28;20637;-75
2023/03/29 03:29:29;;;;;;;1.60;1.50;;;7.40;1.00;;;;;;5076316;28;20865;-75
2023/03/29 03:31:54;;;;;;;2.67;1.70;;;7.50;1.00;;;;;;5076086;28;20417;-76
2023/03/29 03:34:20;;;;;;;6.93;1.40;;;7.40;1.00;;;;;;5075654;28;20257;-75
2023/03/29 03:36:49;;;;;;;1.97;1.57;;;7.40;1.00;;;;;;5075345;28;20166;-75
2023/03/29 03:39:14;;;;;;;3.17;1.30;;;7.50;1.00;;;;;;5075647;28;20155;-75
2023/03/29 03:41:40;;;;;;;10.63;2.17;;;7.50;1.00;;;;;;5075740;28;20421;-75
2023/03/29 03:44:05;;;;;;;3.70;1.63;;;7.50;1.00;;;;;;5075755;28;20209;-75
2023/03/29 03:46:31;;;;;;;1.77;1.47;;;7.40;1.00;;;;;;5057760;28;20170;-80
2023/03/29 03:48:58;;;;;;;3.37;1.67;;;7.40;1.00;;;;;;5075776;28;20159;-79
2023/03/29 03:51:24;;;;;;;1.83;1.43;;;7.50;1.00;;;;;;5075614;28;20155;-79
2023/03/29 03:53:49;;;;;;;6.03;2.10;;;7.40;1.00;;;;;;5057466;28;20406;-79
2023/03/29 03:56:15;;;;;;;1.77;1.47;;;7.40;1.00;;;;;;5075402;28;20408;-80
2023/03/29 03:58:41;;;;;;;1.60;1.50;;;7.30;1.00;;;;;;5057198;28;20221;-79
2023/03/29 04:01:07;;;;;;;3.20;1.70;;;7.30;1.00;;;;;;5057610;28;20227;-75
2023/03/29 04:03:33;;;;;;;2.03;1.63;;;7.80;1.00;;;;;;5075360;28;20151;-75
2023/03/29 04:06:00;;;;;;;3.53;1.47;;;7.30;1.00;;;;;;5075296;28;20377;-75
2023/03/29 04:08:26;;;;;;;2.93;1.73;;;7.30;1.00;;;;;;5075255;28;20394;-75
2023/03/29 04:10:57;;;;;;;2.57;1.50;;;7.30;1.00;;;;;;5057292;28;20876;-75
2023/03/29 04:13:23;;;;;;;1.93;1.83;;;7.30;1.00;;;;;;5074928;28;20396;-76
2023/03/29 04:15:52;;;;;;;1.70;1.60;;;7.30;1.00;;;;;;5075205;28;20447;-79
2023/03/29 04:18:19;;;;;;;1.77;1.67;;;7.40;1.00;;;;;;5074929;28;20444;-79
2023/03/29 04:20:46;;;;;;;2.80;1.60;;;7.30;1.00;;;;;;5075034;28;20410;-79
2023/03/29 04:23:12;;;;;;;3.63;1.60;;;7.30;1.00;;;;;;5074927;28;20390;-79
2023/03/29 04:25:38;;;;;;;1.30;1.17;;;7.30;1.00;;;;;;5074766;28;20378;-79
2023/03/29 04:28:04;;;;;;;3.60;1.90;;;7.40;1.00;;;;;;5074712;28;20389;-80
2023/03/29 04:30:32;;;;;;;2.10;1.90;;;7.40;1.00;;;;;;5074562;28;20599;-76
2023/03/29 04:32:58;;;;;;;2.83;1.37;;;7.40;1.00;;;;;;5074528;28;20448;-75
2023/03/29 04:35:23;;;;;;;1.43;1.33;;;7.70;1.00;;;;;;5075096;28;20860;-75
2023/03/29 04:37:51;;;;;;;9.13;1.70;;;7.40;1.00;;;;;;5074298;28;20514;-75
2023/03/29 04:40:18;;;;;;;1.40;1.27;;;7.40;1.00;;;;;;5056752;28;20171;-75
2023/03/29 04:42:46;;;;;;;1.50;1.40;;;7.40;1.00;;;;;;5074876;28;20461;-91
2023/03/29 04:45:16;;;;;;;2.57;1.63;;;7.30;1.00;;;;;;5057399;28;20462;-91
2023/03/29 04:48:01;;;;;;;2.10;1.90;;;7.40;1.00;;;;;;5057644;28;20405;-92
2023/03/29 04:50:55;;;;;;;3.13;1.67;;;7.30;1.00;;;;;;5057006;28;20405;-92
2023/03/29 04:53:43;;;;;;;2.03;1.90;;;7.40;1.00;;;;;;5057319;28;20416;-91
2023/03/29 04:56:55;;;;;;;1.97;1.53;;;7.40;1.00;;;;;;5057253;28;20527;-92
2023/03/29 04:59:55;;;;;;;1.47;1.30;;;7.30;1.00;;;;;;5057015;28;20445;-91
2023/03/29 05:02:21;;;;;;;1.63;1.53;;;7.40;1.00;;;;;;5057520;28;20736;-90
2023/03/29 05:04:46;;;;;;;1.70;1.60;;;7.40;1.00;;;;;;5074983;28;20384;-91
2023/03/29 05:07:14;;;;;;;7.07;1.73;;;7.40;1.00;;;;;;5056822;28;20175;-91
2023/03/29 05:09:40;;;;;;;3.03;1.50;;;7.40;1.00;;;;;;5057172;28;20752;-91
2023/03/29 05:12:06;;;;;;;1.93;1.63;;;7.50;1.00;;;;;;5057121;28;20397;-91
2023/03/29 05:14:32;;;;;;;3.63;1.77;;;7.40;1.00;;;;;;5057108;28;20439;-90
2023/03/29 05:17:07;;;;;;;3.20;1.43;;;7.40;1.00;;;;;;5057294;28;20470;-91
2023/03/29 05:19:43;;;;;;;2.27;1.53;;;7.40;1.00;;;;;;5057089;28;20258;-92
2023/03/29 05:25:32;;;;;;;7.20;1.70;;;7.40;1.00;;;;;;5074391;28;20477;-91
2023/03/29 05:27:58;;;;;;;1.90;1.80;;;7.50;1.00;;;;;;5056837;28;20407;-92
2023/03/29 05:30:43;;;;;;;2.27;2.07;;;7.60;1.00;;;;;;5056640;28;20508;-91
2023/03/29 05:33:09;;;;;;;5.23;1.63;;;7.60;1.00;;;;;;5057034;28;20167;-92
2023/03/29 05:35:35;;;;;;;3.80;2.07;;;7.70;1.00;;;;;;5056658;28;20405;-92
2023/03/29 05:38:45;;;;;;;6.00;1.50;;;7.70;1.00;;;;;;5056646;28;20281;-92
2023/03/29 05:41:19;;;;;;;7.43;1.70;;;7.80;1.00;;;;;;5056532;28;20401;-92
2023/03/29 05:43:49;;;;;;;1.60;1.50;;;7.80;1.00;;;;;;5056521;28;20409;-91
2023/03/29 05:46:16;;;;;;;3.37;1.50;;;7.80;1.00;;;;;;5056883;28;20402;-90
2023/03/29 05:48:42;;;;;;;1.73;1.50;;;7.90;1.00;;;;;;5056513;28;20911;-91
2023/03/29 05:51:08;;;;;;;3.53;1.73;;;7.90;1.00;;;;;;5056541;28;20404;-92
2023/03/29 05:53:34;;;;;;;3.80;2.13;;;8.50;1.00;;;;;;5056427;28;20236;-92
2023/03/29 05:56:21;;;;;;;4.23;1.93;;;8.90;1.00;;;;;;5056605;28;20405;-91
2023/03/29 05:59:01;;;;;;;12.03;2.03;;;8.20;1.00;;;;;;5056258;28;20654;-91
2023/03/29 06:01:27;;;;;;;3.77;2.00;;;8.50;1.00;;;;;;5060381;28;20403;-90
2023/03/29 06:03:53;;;;;;;3.40;2.03;;;8.40;1.00;;;;;;5060362;28;20441;-88
2023/03/29 06:06:20;;;;;;;2.73;1.80;;;8.40;1.00;;;;;;5060473;28;20455;-87
2023/03/29 06:08:46;;;;;;;7.03;2.10;;;8.50;1.00;;;;;;5060223;28;20171;-92
2023/03/29 06:11:12;;;;;;;2.40;2.20;;;8.60;1.00;;;;;;5078008;28;20943;-89
2023/03/29 06:13:38;;;;;;;2.77;2.50;;;8.70;1.00;;;;;;5060258;28;20405;-91
2023/03/29 06:16:05;;;;;;;3.80;3.00;;;9.00;1.00;;;;;;5060181;28;20569;-91
2023/03/29 06:18:43;;;;;;;3.30;2.97;;;8.90;1.00;;;;;;5060795;28;20210;-91
2023/03/29 06:21:09;;;;;;;3.50;2.90;;;8.90;1.00;;;;;;5059882;28;20411;-92
2023/03/29 06:23:35;;;;;;;7.20;3.20;;;9.40;1.00;;;;;;5059927;28;20405;-92
2023/03/29 06:26:02;;;;;;;8.20;3.60;;;9.20;1.00;;;;;;5059960;28;20406;-91
2023/03/29 06:28:27;;;;;;;6.40;3.67;;;9.60;1.00;;;;;;5059929;28;20509;-91
2023/03/29 06:30:55;;;;;;;4.53;3.20;;;9.30;1.00;;;;;;5077963;28;20453;-92
2023/03/29 06:33:21;;;;;;;4.50;3.80;;;9.30;1.00;;;;;;5060320;28;20178;-92
2023/03/29 06:35:48;;;;;;;3.63;3.33;;;9.00;1.00;;;;;;5059990;28;20420;-92
2023/03/29 06:38:15;;;;;;;5.33;3.43;;;8.90;1.00;;;;;;5060410;28;20444;-91
2023/03/29 06:40:42;;;;;;;6.60;3.43;;;9.00;1.00;;;;;;5059782;28;20531;-91
2023/03/29 06:43:08;;;;;;;5.13;3.77;;;9.90;1.00;;;;;;5059690;28;20504;-91
2023/03/29 06:45:35;;;;;;;6.17;3.53;;;10.50;1.00;;;;;;5059738;28;20848;-90
2023/03/29 06:48:02;;;;;;;4.93;3.40;;;9.80;1.00;;;;;;5077660;28;20398;-91
2023/03/29 06:50:28;;;;;;;4.70;3.53;;;9.30;1.00;;;;;;5059702;28;20420;-91
2023/03/29 06:52:53;;;;;;;5.60;3.40;;;10.70;1.00;;;;;;5059267;28;20413;-89
2023/03/29 06:55:21;;;;;;;22.17;3.70;;;9.40;1.00;;;;;;5077376;28;20425;-88
2023/03/29 06:57:47;;;;;;;4.53;2.83;;;9.60;1.00;;;;;;5059355;28;20783;-89
2023/03/29 07:00:17;;;;;;;13.70;3.63;;;9.40;1.00;;;;;;5059238;28;20893;-88
2023/03/29 07:02:43;;;;;;;5.97;3.77;;;9.20;1.00;;;;;;5077387;28;20413;-83
2023/03/29 07:05:12;;;;;;;13.50;3.60;;;9.40;1.00;;;;;;5076302;28;20390;-83
2023/03/29 07:07:54;;;;;;;6.40;3.50;;;9.20;1.00;;;;;;5058215;28;20405;-83
2023/03/29 07:10:31;;;;;;;5.47;2.90;;;9.30;1.00;;;;;;5058310;28;20437;-83
2023/03/29 07:13:00;;;;;;;4.63;2.63;;;9.50;1.00;;;;;;5075670;28;20408;-83
2023/03/29 07:15:27;;;;;;;6.00;3.30;;;9.60;1.00;;;;;;5058018;28;20502;-82
2023/03/29 07:17:54;;;;;;;3.20;2.77;;;9.60;1.00;;;;;;5076439;28;20500;-83
2023/03/29 07:20:21;;;;;;;4.03;2.60;;;10.10;1.00;;;;;;5076089;28;20477;-83
2023/03/29 07:22:49;;;;;;;16.67;2.93;;;10.00;1.00;;;;;;5058078;28;20405;-83
2023/03/29 07:25:17;;;;;;;6.10;3.07;;;10.10;1.00;;;;;;5075928;28;20397;-83
2023/03/29 07:27:44;;;;;;;4.97;3.07;;;10.10;1.00;;;;;;5075912;28;20402;-83
2023/03/29 07:30:13;;;;;;;3.53;2.60;;;10.00;1.00;;;;;;5076193;28;20397;-83
2023/03/29 07:32:40;;;;;;;5.73;2.93;;;9.90;1.00;;;;;;5076621;28;20391;-83
2023/03/29 07:35:07;;;;;;;4.33;3.13;;;9.80;1.00;;;;;;5075741;28;20481;-83
2023/03/29 07:37:36;;;;;;;3.90;3.13;;;9.90;1.00;;;;;;5075622;28;20441;-83
2023/03/29 07:40:24;;;;;;;4.33;2.97;;;10.00;1.00;;;;;;5075915;28;20852;-83
2023/03/29 07:42:56;;;;;;;9.10;3.50;;;9.90;1.00;;;;;;5076029;28;20480;-83
2023/03/29 07:45:23;;;;;;;6.50;3.57;;;10.00;1.00;;;;;;5075524;28;20393;-83
2023/03/29 07:47:53;;;;;;;7.83;3.23;;;10.20;1.00;;;;;;5058139;28;20424;-88
2023/03/29 07:50:19;;;;;;;3.30;2.70;;;10.20;1.00;;;;;;5058620;28;20424;-89
2023/03/29 07:52:45;;;;;;;3.10;2.90;;;10.50;1.00;;;;;;5058602;28;20381;-89
2023/03/29 07:55:12;;;;;;;3.30;3.00;;;10.60;1.00;;;;;;5076148;28;20675;-89
2023/03/29 07:57:38;;;;;;;5.47;3.10;;;10.90;1.00;;;;;;5075986;28;20200;-87
2023/03/29 08:00:18;;;;;;;4.07;2.90;;;10.70;1.00;;;;;;5076195;28;20385;-89
2023/03/29 08:02:46;;;;;;;3.47;3.13;;;10.90;1.00;;;;;;5058759;28;20191;-83
2023/03/29 08:05:13;;;;;;;3.63;3.30;;;11.20;1.00;;;;;;5075141;28;20393;-83
2023/03/29 08:07:40;;;;;;;3.00;2.70;;;11.30;1.00;;;;;;5075180;28;20804;-84
2023/03/29 08:10:25;;;;;;;8.43;2.73;;;11.30;1.00;;;;;;5074991;28;20471;-82
2023/03/29 08:12:51;;;;;;;3.40;3.10;;;11.10;1.00;;;;;;5075095;28;20389;-83
2023/03/29 08:15:17;;;;;;;3.37;3.00;;;11.10;1.00;;;;;;5075076;28;20905;-83
2023/03/29 08:17:43;;;;;;;5.17;2.77;;;11.10;1.00;;;;;;5057257;28;20537;-88
2023/03/29 08:20:11;;;;;;;2.80;2.60;;;11.20;1.00;;;;;;5075811;28;20439;-88
2023/03/29 08:22:37;;;;;;;3.10;2.80;;;11.30;1.00;;;;;;5075417;28;20467;-89
2023/03/29 08:25:04;;;;;;;3.30;3.00;;;11.40;1.00;;;;;;5075097;28;20861;-89
2023/03/29 08:27:30;;;;;;;3.30;3.00;;;11.50;1.00;;;;;;5075447;28;20399;-89
2023/03/29 08:29:55;;;;;;;4.70;2.93;;;11.60;1.00;;;;;;5075730;28;20816;-89
2023/03/29 08:32:21;;;;;;;6.83;3.10;;;11.80;1.00;;;;;;5076131;28;20181;-89
2023/03/29 08:34:47;;;;;;;4.33;2.80;;;11.80;1.00;;;;;;5075685;28;20198;-89
2023/03/29 08:37:13;;;;;;;3.70;3.40;;;11.80;1.00;;;;;;5057288;28;20449;-89
2023/03/29 08:39:39;;;;;;;2.60;2.40;;;11.80;1.00;;;;;;5075728;28;20170;-89
2023/03/29 08:42:33;;;;;;;4.27;2.90;;;11.80;1.00;;;;;;5075207;28;20386;-89
2023/03/29 08:45:28;;;;;;;3.83;2.50;;;11.90;1.00;;;;;;5075402;28;20162;-89
2023/03/29 08:48:02;;;;;;;3.30;3.00;;;12.10;1.00;;;;;;5075217;28;20400;-89
2023/03/29 08:50:42;;;;;;;3.07;2.77;;;12.20;1.00;;;;;;5075302;28;20428;-89
2023/03/29 08:53:17;;;;;;;3.13;2.90;;;12.50;1.00;;;;;;5075387;28;20356;-89
2023/03/29 08:55:46;;;;;;;5.60;3.10;;;12.70;1.00;;;;;;5057543;28;20888;-89
2023/03/29 08:58:17;;;;;;;10.37;2.77;;;12.60;1.00;;;;;;5074862;28;20473;-89
2023/03/29 09:00:49;;;;;;;3.00;2.40;;;13.00;1.00;;;;;;5075000;28;20427;-89
2023/03/29 09:03:33;;;;;;;2.90;2.60;;;13.10;1.00;;;;;;5057557;28;20479;-89
2023/03/29 09:06:05;;;;;;;3.70;2.93;;;13.10;1.00;;;;;;5074706;28;20915;-89
2023/03/29 09:08:36;;;;;;;4.87;3.07;;;13.60;1.00;;;;;;5056951;28;20387;-89
2023/03/29 09:11:22;;;;;;;7.23;3.73;;;13.20;1.00;;;;;;5074446;28;20527;-89
2023/03/29 09:14:35;;;;;;;4.70;3.00;;;13.20;1.00;;;;;;5056812;28;20883;-90
2023/03/29 09:17:46;;;;;;;3.93;2.80;;;12.80;1.00;;;;;;5074809;28;20776;-89
2023/03/29 09:20:30;;;;;;;4.90;3.13;;;12.60;1.00;;;;;;5033670;28;20405;-89
2023/03/29 09:23:52;;;;;;;3.90;2.40;;;12.90;1.00;;;;;;5020499;28;20401;-89
2023/03/29 09:27:08;;;;;;;4.33;2.70;;;12.70;1.00;;;;;;4971871;28;20958;-89
2023/03/29 09:30:14;;;;;;;3.13;2.53;;;12.70;1.00;;;;;;4957821;28;20425;-90
2023/03/29 09:36:57;;;;;;;4.30;2.73;;;13.00;1.00;;;;;;4972346;28;20384;-83
2023/03/29 09:39:27;;;;;;;6.03;2.60;;;13.20;1.00;;;;;;4935034;29;20414;-82
2023/03/29 09:42:37;;;;;;;5.70;2.37;;;13.60;1.00;;;;;;4934555;29;20394;-83
2023/03/29 09:45:55;;;;;;;5.50;2.93;;;13.50;1.00;;;;;;4934927;29;20513;-84
2023/03/29 09:51:47;;;;;;;11.40;2.93;;;13.50;1.00;;;;;;4934178;29;20407;-84
2023/03/29 09:54:13;;;;;;;2.97;2.70;;;13.40;1.00;;;;;;4934379;29;20404;-85
2023/03/29 09:56:51;;;;;;;5.37;2.90;;;13.70;1.00;;;;;;4955145;28;20387;-77
2023/03/29 09:59:20;;;;;;;5.23;2.73;;;13.70;1.00;;;;;;4992214;28;20375;-77
2023/03/29 10:02:19;;;;;;;7.00;2.83;;;13.90;1.00;;;;;;4992125;28;20433;-78
2023/03/29 10:05:14;;;;;;;3.70;2.50;;;13.90;1.00;;;;;;4992978;28;20910;-77
2023/03/29 10:08:10;;;;;;;5.03;3.17;;;13.70;1.00;;;;;;4992293;28;20941;-79
2023/03/29 10:10:38;;;;;;;2.90;2.60;;;13.40;1.00;;;;;;5052471;28;20897;-77
2023/03/29 10:13:05;;;;;;;3.10;2.80;;;13.40;1.00;;;;;;5073242;28;20364;-78
2023/03/29 10:15:37;;;;;;;3.20;2.67;;;13.50;1.00;;;;;;5073479;28;20922;-78
2023/03/29 10:18:12;;;;;;;3.57;2.80;;;13.80;1.00;;;;;;5073080;28;20424;-78
2023/03/29 10:20:49;;;;;;;5.67;3.07;;;13.90;1.00;;;;;;5073484;28;20407;-78
2023/03/29 10:23:20;;;;;;;6.10;3.20;;;14.40;1.00;;;;;;5073227;28;20360;-77
2023/03/29 10:25:45;;;;;;;3.40;3.00;;;14.50;1.00;;;;;;5054808;28;20429;-77
2023/03/29 10:28:20;;;;;;;4.40;3.40;;;14.30;1.00;;;;;;5073326;28;20434;-78
2023/03/29 10:30:59;;;;;;;6.23;2.97;;;14.50;1.00;;;;;;5072678;28;21476;-77
2023/03/29 10:33:34;;;;;;;8.53;3.03;;;15.10;1.00;;;;;;5073183;28;20775;-77
2023/03/29 10:36:03;;;;;;;2.70;2.50;;;15.50;1.00;;;;;;5073382;28;20363;-78
2023/03/29 10:38:29;;;;;;;4.70;3.30;;;15.60;1.00;;;;;;5072450;28;20442;-77
2023/03/29 10:41:10;;;;;;;4.00;3.37;;;15.60;1.00;;;;;;5069901;28;20519;-77
2023/03/29 10:43:50;;;;;;;8.50;3.87;;;15.50;1.00;;;;;;5054874;28;20187;-77
2023/03/29 10:46:50;;;;;;;5.73;2.83;;;15.70;1.00;;;;;;5071991;28;20398;-78
2023/03/29 10:49:22;;;;;;;8.20;3.10;;;15.70;1.00;;;;;;5076693;28;20794;-78
2023/03/29 10:51:56;;;;;;;3.97;2.87;;;15.90;1.00;;;;;;5076630;28;20368;-78
2023/03/29 10:54:55;;;;;;;4.83;3.10;;;15.90;1.00;;;;;;5076378;28;20481;-78
2023/03/29 10:57:49;;;;;;;4.03;2.53;;;16.10;1.00;;;;;;5076673;28;20516;-77
2023/03/29 11:00:39;;;;;;;3.10;2.80;;;15.60;1.00;;;;;;5083321;28;20484;-77
2023/03/29 11:03:50;;;;;;;4.47;3.10;;;16.10;1.00;;;;;;5096631;28;20720;-78
2023/03/29 11:06:53;;;;;;;8.67;2.90;;;16.10;1.00;;;;;;5076666;28;20417;-77
2023/03/29 11:09:44;;;;;;;7.97;3.30;;;16.30;1.00;;;;;;5076104;28;20388;-77
2023/03/29 11:12:42;;;;;;;3.63;2.97;;;16.50;1.00;;;;;;5085736;28;20805;-78
2023/03/29 11:15:17;;;;;;;5.47;3.40;;;16.90;1.00;;;;;;5072314;28;20420;-77
2023/03/29 11:18:24;;;;;;;4.37;3.20;;;16.80;1.00;;;;;;5084711;28;20492;-77
2023/03/29 11:21:13;;;;;;;6.77;2.83;;;16.90;1.00;;;;;;5076362;28;20515;-79
2023/03/29 11:24:19;;;;;;;6.70;3.70;;;16.90;1.00;;;;;;5057995;28;20403;-79
2023/03/29 11:27:22;;;;;;;4.80;3.40;;;17.00;1.00;;;;;;5057892;28;20406;-79
2023/03/29 11:30:13;;;;;;;6.53;2.80;;;17.00;1.00;;;;;;5076056;28;20387;-79
2023/03/29 11:32:53;;;;;;;3.13;2.80;;;16.90;1.00;;;;;;5076686;28;20402;-79
2023/03/29 11:35:47;;;;;;;3.70;2.83;;;17.00;1.00;;;;;;5076709;28;20759;-79
2023/03/29 11:38:28;;;;;;;4.00;2.90;;;16.30;1.00;;;;;;5075539;28;20445;-79
2023/03/29 11:41:18;;;;;;;4.20;3.20;;;15.90;1.00;;;;;;5081574;28;20393;-79
2023/03/29 11:44:07;;;;;;;8.63;3.37;;;16.00;1.00;;;;;;5095960;28;20849;-79
2023/03/29 11:46:45;;;;;;;4.10;3.20;;;16.70;1.00;;;;;;5095889;28;20810;-79
2023/03/29 11:49:36;;;;;;;5.50;2.90;;;16.80;1.00;;;;;;5095642;28;20795;-79
2023/03/29 11:52:18;;;;;;;14.40;2.77;;;17.20;1.00;;;;;;5094682;28;20426;-77
2023/03/29 11:55:04;;;;;;;9.93;2.97;;;17.60;1.00;;;;;;5095864;28;20440;-78
2023/03/29 11:57:36;;;;;;;7.50;3.33;;;17.70;1.00;;;;;;5095546;28;20461;-77
2023/03/29 12:00:31;;;;;;;11.00;3.90;;;17.70;1.00;;;;;;5095444;28;20391;-78
2023/03/29 12:03:11;;;;;;;14.70;3.37;;;18.00;1.00;;;;;;5095352;28;20388;-77
2023/03/29 12:06:05;;;;;;;4.70;2.93;;;18.10;1.00;;;;;;5095700;28;20395;-77
2023/03/29 12:08:36;;;;;;;3.67;3.30;;;17.80;1.00;;;;;;5094373;28;20411;-77
2023/03/29 12:11:17;;;;;;;5.47;2.93;;;17.90;1.00;;;;;;5095199;28;20391;-77
2023/03/29 12:14:10;;;;;;;3.77;2.80;;;17.70;1.00;;;;;;5077080;28;20414;-77
2023/03/29 12:17:03;;;;;;;7.73;3.60;;;17.80;1.00;;;;;;5095328;28;20388;-77
2023/03/29 12:20:07;;;;;;;3.00;2.70;;;17.30;1.00;;;;;;5095408;28;20713;-78
2023/03/29 12:22:55;;;;;;;4.70;3.10;;;17.30;1.00;;;;;;5095263;28;20470;-80
2023/03/29 12:26:18;;;;;;;4.20;3.43;;;17.00;1.00;;;;;;5093871;28;20420;-80
2023/03/29 12:29:13;;;;;;;3.40;3.10;;;16.70;1.00;;;;;;5012501;28;20425;-80
2023/03/29 12:31:59;;;;;;;4.67;3.30;;;17.20;1.00;;;;;;4996112;28;20617;-79
2023/03/29 12:35:01;;;;;;;5.90;3.03;;;17.40;1.00;;;;;;4993218;28;20896;-79
2023/03/29 12:37:54;;;;;;;7.97;3.23;;;17.30;1.00;;;;;;4993188;28;20488;-77
2023/03/29 12:40:40;;;;;;;3.90;3.13;;;17.30;1.00;;;;;;4994341;28;20756;-77
2023/03/29 12:43:15;;;;;;;3.70;2.83;;;17.40;1.00;;;;;;4998912;28;20489;-78
2023/03/29 12:45:49;;;;;;;5.07;3.70;;;17.00;1.00;;;;;;4993322;28;20395;-77
2023/03/29 12:48:32;;;;;;;3.90;2.50;;;17.10;1.00;;;;;;4993022;28;20390;-78
2023/03/29 12:51:06;;;;;;;5.90;3.17;;;17.10;1.00;;;;;;4977047;28;20509;-77
2023/03/29 12:54:06;;;;;;;6.33;3.30;;;17.00;1.00;;;;;;4993252;28;20485;-78
2023/03/29 12:56:56;;;;;;;7.53;3.30;;;16.70;1.00;;;;;;4992966;28;20424;-77
2023/03/29 12:59:44;;;;;;;3.47;3.17;;;16.70;1.00;;;;;;4993499;28;20431;-78
2023/03/29 13:02:12;;;;;;;4.93;3.23;;;17.00;1.00;;;;;;5025932;28;20404;-78
2023/03/29 13:05:26;;;;;;;5.50;3.40;;;17.50;1.00;;;;;;5056018;28;20408;-77
2023/03/29 13:07:52;;;;;;;5.90;2.90;;;17.50;1.00;;;;;;5073922;28;20397;-79
2023/03/29 13:13:42;;;;;;;7.97;3.57;;;17.50;1.00;;;;;;5073719;28;20280;-79
2023/03/29 13:16:29;;;;;;;5.90;3.67;;;17.60;1.00;;;;;;5058212;28;20501;-79
2023/03/29 13:19:30;;;;;;;4.30;3.30;;;17.70;1.00;;;;;;5085617;28;20866;-79
2023/03/29 13:22:20;;;;;;;4.93;3.40;;;17.90;1.00;;;;;;5093425;28;20434;-78
2023/03/29 13:25:23;;;;;;;4.43;3.07;;;17.90;1.00;;;;;;5074253;28;20434;-78
2023/03/29 13:27:55;;;;;;;5.47;3.00;;;17.90;1.00;;;;;;5069972;28;20765;-77
2023/03/29 13:30:34;;;;;;;6.83;3.30;;;17.70;1.00;;;;;;5084381;28;20402;-76
2023/03/29 13:33:22;;;;;;;4.40;3.10;;;17.60;1.00;;;;;;5073582;28;20515;-76
2023/03/29 13:36:21;;;;;;;3.73;3.03;;;17.70;1.00;;;;;;5056206;28;20415;-76
2023/03/29 13:39:01;;;;;;;6.43;3.50;;;17.50;1.00;;;;;;5074169;28;20442;-76
2023/03/29 13:41:39;;;;;;;4.53;2.97;;;17.50;1.00;;;;;;5055887;28;20426;-77
2023/03/29 13:44:21;;;;;;;6.70;3.30;;;17.50;1.00;;;;;;5073800;28;20363;-76
2023/03/29 13:46:48;;;;;;;4.53;3.20;;;17.60;1.00;;;;;;5073480;28;20403;-78
2023/03/29 13:49:23;;;;;;;4.43;3.30;;;17.70;1.00;;;;;;5073499;28;20752;-78
2023/03/29 13:52:14;;;;;;;8.43;3.50;;;17.90;1.00;;;;;;5073809;28;20392;-78
2023/03/29 13:54:55;;;;;;;4.23;3.50;;;17.40;1.00;;;;;;5073552;28;20402;-79
2023/03/29 13:57:28;;;;;;;4.27;3.20;;;17.40;1.00;;;;;;5073330;28;20918;-79
2023/03/29 13:59:59;;;;;;;7.90;3.07;;;17.70;1.00;;;;;;5073451;28;20876;-79
2023/03/29 14:02:48;;;;;;;4.73;3.83;;;18.20;1.00;;;;;;5073353;28;20822;-77